Time;durP1;ratioP1;P1;durP2;ratioP2;P2;SDS_P1;SDS_P2;PMS_P1;PMS_P2;Temp;Humidity;BMP_temperature;BMP_pressure;BME280_temperature;BME280_humidity;BME280_pressure;Samples;Min_cycle;Max_cycle;Signal;HPM_P1;HPM_P2
2023/03/07 00:00:13;;;;;;;13.85;9.85;;;;;;;;;;5106421;28;20234;-69
2023/03/07 00:02:39;;;;;;;13.60;9.60;;;;;;;;;;5106378;28;20350;-69
2023/03/07 00:05:07;;;;;;;11.10;8.75;;;;;;;;;;5106331;28;20315;-69
2023/03/07 00:07:34;;;;;;;14.07;9.80;;;;;;;;;;5106030;28;20196;-69
2023/03/07 00:10:00;;;;;;;12.82;9.15;;;;;;;;;;5105975;28;20231;-69
2023/03/07 00:12:26;;;;;;;10.95;8.75;;;;;;;;;;5106734;28;20203;-68
2023/03/07 00:14:52;;;;;;;11.98;8.90;;;;;;;;;;5105924;28;20206;-69
2023/03/07 00:17:19;;;;;;;13.13;9.77;;;;;;;;;;5105799;28;20203;-69
2023/03/07 00:19:46;;;;;;;12.30;8.90;;;;;;;;;;5106031;28;20215;-69
2023/03/07 00:22:13;;;;;;;11.30;9.27;;;;;;;;;;5105717;28;20196;-69
2023/03/07 00:24:39;;;;;;;11.57;9.18;;;;;;;;;;5105793;28;20219;-69
2023/03/07 00:27:06;;;;;;;12.13;9.30;;;;;;;;;;5105984;28;20387;-69
2023/03/07 00:29:32;;;;;;;13.48;9.30;;;;;;;;;;5105464;28;20200;-69
2023/03/07 00:31:58;;;;;;;9.55;8.23;;;;;;;;;;5105782;28;20518;-69
2023/03/07 00:34:25;;;;;;;12.70;9.15;;;;;;;;;;5105606;28;20522;-69
2023/03/07 00:36:52;;;;;;;10.73;8.48;;;;;;;;;;5105689;28;20196;-69
2023/03/07 00:39:19;;;;;;;13.48;9.35;;;;;;;;;;5105508;28;20195;-69
2023/03/07 00:41:46;;;;;;;10.52;8.45;;;;;;;;;;5105335;28;20196;-69
2023/03/07 00:44:12;;;;;;;12.10;9.60;;;;;;;;;;5105602;28;20581;-68
2023/03/07 00:46:38;;;;;;;9.88;8.55;;;;;;;;;;5105568;28;20372;-69
2023/03/07 00:49:04;;;;;;;13.35;9.50;;;;;;;;;;5105063;28;20196;-68
2023/03/07 00:51:31;;;;;;;11.98;9.15;;;;;;;;;;5105503;28;20200;-68
2023/03/07 00:53:57;;;;;;;12.10;9.30;;;;;;;;;;5105147;28;20199;-68
2023/03/07 00:56:25;;;;;;;12.18;9.38;;;;;;;;;;5105542;28;20249;-68
2023/03/07 00:58:52;;;;;;;14.25;9.48;;;;;;;;;;5105214;28;20389;-68
2023/03/07 01:01:19;;;;;;;11.65;9.18;;;;;;;;;;5105365;28;20499;-68
2023/03/07 01:03:48;;;;;;;12.73;8.93;;;;;;;;;;5104980;28;20212;-68
2023/03/07 01:06:15;;;;;;;12.73;8.82;;;;;;;;;;5104229;28;20419;-68
2023/03/07 01:08:41;;;;;;;12.60;8.50;;;;;;;;;;5104758;28;20212;-68
2023/03/07 01:11:08;;;;;;;13.85;9.15;;;;;;;;;;5105183;28;20399;-68
2023/03/07 01:13:36;;;;;;;10.90;8.32;;;;;;;;;;5104990;28;20191;-68
2023/03/07 01:16:09;;;;;;;11.30;9.18;;;;;;;;;;5104974;28;20203;-68
2023/03/07 01:18:35;;;;;;;12.43;8.88;;;;;;;;;;5104800;28;20195;-68
2023/03/07 01:21:01;;;;;;;9.75;8.48;;;;;;;;;;5104674;28;20498;-68
2023/03/07 01:23:28;;;;;;;13.95;9.32;;;;;;;;;;5104982;28;20451;-68
2023/03/07 01:25:54;;;;;;;11.70;8.57;;;;;;;;;;5104714;28;20200;-68
2023/03/07 01:28:20;;;;;;;11.50;8.80;;;;;;;;;;5104457;28;20219;-68
2023/03/07 01:30:56;;;;;;;11.65;9.15;;;;;;;;;;5104636;28;20196;-68
2023/03/07 01:33:22;;;;;;;10.60;8.73;;;;;;;;;;5104624;28;20233;-69
2023/03/07 01:35:48;;;;;;;10.25;8.38;;;;;;;;;;5104659;28;20207;-69
2023/03/07 01:38:14;;;;;;;11.43;8.63;;;;;;;;;;5104336;28;20196;-69
2023/03/07 01:40:41;;;;;;;11.05;7.95;;;;;;;;;;5104700;28;20200;-69
2023/03/07 01:43:21;;;;;;;11.27;8.60;;;;;;;;;;5104502;28;20196;-68
2023/03/07 01:46:06;;;;;;;11.70;7.97;;;;;;;;;;5104322;28;20195;-68
2023/03/07 01:48:34;;;;;;;11.80;8.00;;;;;;;;;;5104353;28;20412;-68
2023/03/07 01:51:00;;;;;;;11.38;8.82;;;;;;;;;;5104392;28;20200;-69
2023/03/07 01:53:26;;;;;;;10.10;8.10;;;;;;;;;;5103981;28;20195;-69
2023/03/07 01:55:53;;;;;;;12.63;8.82;;;;;;;;;;5103990;28;20202;-68
2023/03/07 01:58:19;;;;;;;11.55;9.18;;;;;;;;;;5103801;28;20200;-69
2023/03/07 02:00:46;;;;;;;10.82;8.27;;;;;;;;;;5103999;28;20196;-69
2023/03/07 02:03:15;;;;;;;12.65;8.73;;;;;;;;;;5104147;28;20267;-69
2023/03/07 02:05:47;;;;;;;10.93;8.68;;;;;;;;;;5103881;28;20227;-69
2023/03/07 02:08:14;;;;;;;11.57;8.50;;;;;;;;;;5103444;28;20499;-68
2023/03/07 02:10:41;;;;;;;13.27;8.52;;;;;;;;;;5103833;28;20266;-69
2023/03/07 02:13:07;;;;;;;10.38;8.68;;;;;;;;;;5103833;28;20282;-69
2023/03/07 02:15:34;;;;;;;11.90;9.05;;;;;;;;;;5103870;28;20199;-68
2023/03/07 02:18:01;;;;;;;11.95;8.27;;;;;;;;;;5103863;28;20233;-68
2023/03/07 02:20:35;;;;;;;12.50;8.98;;;;;;;;;;5103834;28;20199;-68
2023/03/07 02:23:04;;;;;;;14.20;8.85;;;;;;;;;;5103921;28;20195;-68
2023/03/07 02:25:33;;;;;;;12.20;8.98;;;;;;;;;;5103489;28;20215;-68
2023/03/07 02:28:01;;;;;;;12.35;9.50;;;;;;;;;;5103290;28;20352;-69
2023/03/07 02:30:27;;;;;;;12.32;8.95;;;;;;;;;;5103672;28;20195;-68
2023/03/07 02:32:53;;;;;;;13.45;9.38;;;;;;;;;;5103665;28;20200;-68
2023/03/07 02:35:23;;;;;;;11.45;8.85;;;;;;;;;;5103404;28;20480;-68
2023/03/07 02:37:52;;;;;;;12.70;8.82;;;;;;;;;;5103769;28;20371;-68
2023/03/07 02:40:19;;;;;;;11.95;9.05;;;;;;;;;;5103299;28;20202;-69
2023/03/07 02:42:47;;;;;;;12.55;8.85;;;;;;;;;;5103622;28;20196;-69
2023/03/07 02:45:15;;;;;;;11.57;8.77;;;;;;;;;;5103077;28;20219;-69
2023/03/07 02:47:42;;;;;;;15.55;9.00;;;;;;;;;;5103234;28;20199;-69
2023/03/07 02:50:09;;;;;;;12.57;8.07;;;;;;;;;;5103235;28;20203;-69
2023/03/07 02:52:35;;;;;;;12.95;8.93;;;;;;;;;;5102906;28;20196;-68
2023/03/07 02:55:01;;;;;;;12.48;9.00;;;;;;;;;;5103287;28;20195;-69
2023/03/07 02:57:27;;;;;;;12.48;9.10;;;;;;;;;;5103015;28;20495;-69
2023/03/07 02:59:54;;;;;;;11.65;9.07;;;;;;;;;;5102661;28;20233;-69
2023/03/07 03:02:21;;;;;;;10.13;8.30;;;;;;;;;;5102752;28;20207;-68
2023/03/07 03:04:47;;;;;;;12.50;9.18;;;;;;;;;;5102628;28;20223;-69
2023/03/07 03:07:14;;;;;;;13.80;9.32;;;;;;;;;;5102635;28;20195;-68
2023/03/07 03:09:40;;;;;;;12.80;9.43;;;;;;;;;;5102505;28;20203;-68
2023/03/07 03:12:06;;;;;;;10.88;9.02;;;;;;;;;;5102999;28;20196;-68
2023/03/07 03:14:33;;;;;;;11.93;9.07;;;;;;;;;;5102878;28;20195;-68
2023/03/07 03:16:59;;;;;;;12.10;8.82;;;;;;;;;;5102874;28;20360;-69
2023/03/07 03:19:28;;;;;;;13.40;8.85;;;;;;;;;;5102836;28;20195;-69
2023/03/07 03:21:54;;;;;;;14.98;9.48;;;;;;;;;;5102676;28;20191;-68
2023/03/07 03:24:20;;;;;;;12.23;9.50;;;;;;;;;;5102766;28;20265;-69
2023/03/07 03:26:47;;;;;;;11.73;8.43;;;;;;;;;;5102893;28;20195;-68
2023/03/07 03:29:13;;;;;;;12.30;8.45;;;;;;;;;;5101935;28;20220;-68
2023/03/07 03:31:39;;;;;;;10.43;8.52;;;;;;;;;;5102791;28;20263;-69
2023/03/07 03:34:06;;;;;;;16.90;9.65;;;;;;;;;;5102778;28;20195;-69
2023/03/07 03:36:33;;;;;;;11.68;9.27;;;;;;;;;;5102277;28;20241;-69
2023/03/07 03:39:00;;;;;;;13.38;9.63;;;;;;;;;;5102635;28;20195;-69
2023/03/07 03:41:26;;;;;;;11.60;8.93;;;;;;;;;;5102814;28;20414;-68
2023/03/07 03:43:52;;;;;;;14.77;9.60;;;;;;;;;;5102488;28;20580;-68
2023/03/07 03:46:19;;;;;;;14.57;9.90;;;;;;;;;;5102471;28;20479;-69
2023/03/07 03:48:45;;;;;;;13.82;9.43;;;;;;;;;;5102151;28;20539;-69
2023/03/07 03:51:13;;;;;;;14.40;9.15;;;;;;;;;;5102179;28;20195;-68
2023/03/07 03:53:40;;;;;;;14.38;10.10;;;;;;;;;;5102166;28;20477;-68
2023/03/07 03:56:08;;;;;;;13.23;9.90;;;;;;;;;;5102281;28;20196;-68
2023/03/07 03:58:35;;;;;;;12.85;9.30;;;;;;;;;;5102255;28;20217;-68
2023/03/07 04:01:04;;;;;;;13.80;9.70;;;;;;;;;;5102183;28;20200;-68
2023/03/07 04:03:30;;;;;;;14.35;9.55;;;;;;;;;;5102100;28;20234;-69
2023/03/07 04:06:00;;;;;;;15.70;10.48;;;;;;;;;;5102651;28;20215;-69
2023/03/07 04:08:26;;;;;;;12.18;9.85;;;;;;;;;;5102262;28;20200;-69
2023/03/07 04:10:54;;;;;;;12.90;9.82;;;;;;;;;;5102513;28;20195;-68
2023/03/07 04:13:20;;;;;;;14.43;10.02;;;;;;;;;;5102476;28;20247;-68
2023/03/07 04:15:46;;;;;;;13.30;9.82;;;;;;;;;;5102272;28;20191;-68
2023/03/07 04:18:12;;;;;;;11.93;9.35;;;;;;;;;;5101908;28;20234;-68
2023/03/07 04:20:39;;;;;;;15.05;9.63;;;;;;;;;;5102205;28;20239;-68
2023/03/07 04:23:05;;;;;;;15.18;10.68;;;;;;;;;;5102438;28;20233;-68
2023/03/07 04:25:32;;;;;;;14.38;10.15;;;;;;;;;;5101993;28;20257;-68
2023/03/07 04:27:59;;;;;;;13.25;9.90;;;;;;;;;;5101637;28;20220;-68
2023/03/07 04:30:26;;;;;;;17.40;11.30;;;;;;;;;;5101996;28;20200;-69
2023/03/07 04:32:52;;;;;;;14.68;10.88;;;;;;;;;;5101742;28;20218;-68
2023/03/07 04:35:18;;;;;;;13.15;9.50;;;;;;;;;;5102330;28;20496;-68
2023/03/07 04:37:44;;;;;;;13.18;9.52;;;;;;;;;;5101985;28;20253;-68
2023/03/07 04:40:11;;;;;;;16.40;9.63;;;;;;;;;;5102036;28;20196;-69
2023/03/07 04:42:37;;;;;;;13.75;9.98;;;;;;;;;;5104468;28;20233;-68
2023/03/07 04:45:06;;;;;;;13.90;9.90;;;;;;;;;;5105390;28;20215;-68
2023/03/07 04:47:32;;;;;;;13.65;9.43;;;;;;;;;;5104942;28;20242;-68
2023/03/07 04:49:58;;;;;;;15.15;9.63;;;;;;;;;;5105546;28;20195;-68
2023/03/07 04:52:24;;;;;;;14.55;9.88;;;;;;;;;;5105416;28;20196;-68
2023/03/07 04:54:51;;;;;;;13.07;10.38;;;;;;;;;;5105576;28;20265;-68
2023/03/07 04:57:17;;;;;;;13.20;9.52;;;;;;;;;;5105303;28;20237;-68
2023/03/07 04:59:43;;;;;;;13.48;10.05;;;;;;;;;;5104847;28;20219;-68
2023/03/07 05:02:12;;;;;;;11.98;9.38;;;;;;;;;;5105254;28;20576;-69
2023/03/07 05:04:38;;;;;;;14.20;10.05;;;;;;;;;;5105293;28;20233;-68
2023/03/07 05:07:05;;;;;;;12.40;8.98;;;;;;;;;;5105154;28;20233;-68
2023/03/07 05:09:31;;;;;;;13.18;9.80;;;;;;;;;;5104875;28;20269;-68
2023/03/07 05:11:57;;;;;;;11.90;8.93;;;;;;;;;;5105416;28;20195;-68
2023/03/07 05:14:23;;;;;;;13.30;9.98;;;;;;;;;;5104974;28;20248;-68
2023/03/07 05:16:50;;;;;;;12.95;8.82;;;;;;;;;;5104870;28;20426;-68
2023/03/07 05:19:17;;;;;;;11.15;9.52;;;;;;;;;;5104929;28;20268;-68
2023/03/07 05:21:44;;;;;;;12.43;9.30;;;;;;;;;;5105342;28;20472;-68
2023/03/07 05:24:10;;;;;;;12.85;8.95;;;;;;;;;;5104812;28;20196;-68
2023/03/07 05:26:36;;;;;;;12.93;9.70;;;;;;;;;;5104792;28;20580;-68
2023/03/07 05:29:03;;;;;;;12.80;9.73;;;;;;;;;;5104305;28;20597;-68
2023/03/07 05:31:29;;;;;;;12.02;9.98;;;;;;;;;;5104580;28;20242;-68
2023/03/07 05:33:55;;;;;;;13.18;9.65;;;;;;;;;;5104494;28;20204;-68
2023/03/07 05:36:23;;;;;;;13.20;9.25;;;;;;;;;;5104599;28;20561;-68
2023/03/07 05:38:52;;;;;;;11.63;8.88;;;;;;;;;;5104079;28;20204;-69
2023/03/07 05:41:18;;;;;;;13.85;9.48;;;;;;;;;;5104215;28;20380;-68
2023/03/07 05:43:45;;;;;;;13.05;9.70;;;;;;;;;;5103976;28;20224;-68
2023/03/07 05:46:12;;;;;;;13.23;9.20;;;;;;;;;;5104525;28;20433;-68
2023/03/07 05:48:38;;;;;;;12.63;9.25;;;;;;;;;;5104130;28;20558;-69
2023/03/07 05:51:04;;;;;;;11.13;8.98;;;;;;;;;;5104124;28;20221;-68
2023/03/07 05:53:32;;;;;;;12.13;8.93;;;;;;;;;;5103886;28;20207;-68
2023/03/07 05:55:58;;;;;;;11.70;8.75;;;;;;;;;;5103866;28;20203;-68
2023/03/07 05:58:24;;;;;;;11.73;9.15;;;;;;;;;;5103772;28;20364;-68
2023/03/07 06:00:51;;;;;;;11.05;8.98;;;;;;;;;;5104140;28;20218;-68
2023/03/07 06:03:17;;;;;;;14.70;8.73;;;;;;;;;;5103876;28;20445;-68
2023/03/07 06:05:43;;;;;;;11.25;8.88;;;;;;;;;;5103762;28;20215;-69
2023/03/07 06:08:09;;;;;;;10.40;8.38;;;;;;;;;;5103504;28;20233;-68
2023/03/07 06:10:38;;;;;;;12.90;9.10;;;;;;;;;;5103799;28;20274;-68
2023/03/07 06:13:05;;;;;;;10.63;8.75;;;;;;;;;;5103700;28;20211;-69
2023/03/07 06:15:31;;;;;;;12.57;8.57;;;;;;;;;;5103585;28;20229;-69
2023/03/07 06:17:57;;;;;;;11.20;8.23;;;;;;;;;;5103529;28;20229;-69
2023/03/07 06:20:23;;;;;;;14.52;9.60;;;;;;;;;;5103518;28;20425;-68
2023/03/07 06:22:50;;;;;;;13.95;9.52;;;;;;;;;;5103450;28;20203;-68
2023/03/07 06:25:16;;;;;;;12.57;8.32;;;;;;;;;;5103093;28;20219;-68
2023/03/07 06:27:44;;;;;;;10.80;8.45;;;;;;;;;;5103306;28;20602;-64
2023/03/07 06:30:12;;;;;;;12.10;8.23;;;;;;;;;;5102990;28;20331;-60
2023/03/07 06:32:38;;;;;;;12.23;8.75;;;;;;;;;;5102894;28;20241;-61
2023/03/07 06:35:05;;;;;;;13.07;8.27;;;;;;;;;;5102595;28;20234;-61
2023/03/07 06:37:31;;;;;;;11.90;8.13;;;;;;;;;;5102634;28;20495;-61
2023/03/07 06:39:57;;;;;;;12.95;7.88;;;;;;;;;;5102393;28;20199;-61
2023/03/07 06:42:23;;;;;;;12.18;8.52;;;;;;;;;;5102704;28;20237;-61
2023/03/07 06:44:51;;;;;;;9.60;7.88;;;;;;;;;;5102549;28;20203;-61
2023/03/07 06:47:17;;;;;;;12.02;8.35;;;;;;;;;;5102387;28;20192;-60
2023/03/07 06:49:43;;;;;;;12.30;8.25;;;;;;;;;;5102396;28;20503;-61
2023/03/07 06:52:10;;;;;;;10.05;8.07;;;;;;;;;;5102362;28;20517;-61
2023/03/07 06:54:36;;;;;;;12.50;8.57;;;;;;;;;;5102333;28;20223;-61
2023/03/07 06:57:02;;;;;;;8.90;7.60;;;;;;;;;;5102897;28;20192;-60
2023/03/07 06:59:28;;;;;;;11.23;8.07;;;;;;;;;;5084578;28;20212;-61
2023/03/07 07:01:56;;;;;;;11.60;8.52;;;;;;;;;;5084972;28;20211;-61
2023/03/07 07:04:22;;;;;;;11.80;9.18;;;;;;;;;;5086617;28;20515;-61
2023/03/07 07:06:48;;;;;;;10.80;8.13;;;;;;;;;;5087933;28;20558;-60
2023/03/07 07:09:15;;;;;;;9.75;7.85;;;;;;;;;;5083825;28;20212;-61
2023/03/07 07:11:41;;;;;;;10.40;7.78;;;;;;;;;;5086398;28;20208;-61
2023/03/07 07:14:07;;;;;;;10.70;8.48;;;;;;;;;;5085804;28;20211;-61
2023/03/07 07:16:35;;;;;;;12.00;7.82;;;;;;;;;;5093736;28;20229;-61
2023/03/07 07:19:02;;;;;;;10.52;8.13;;;;;;;;;;5096638;28;20439;-60
2023/03/07 07:21:28;;;;;;;10.70;8.27;;;;;;;;;;5097029;28;20241;-61
2023/03/07 07:23:55;;;;;;;12.82;8.52;;;;;;;;;;5095749;28;20405;-61
2023/03/07 07:26:23;;;;;;;10.07;7.55;;;;;;;;;;5093502;28;20455;-60
2023/03/07 07:28:49;;;;;;;10.57;8.23;;;;;;;;;;5092675;28;20227;-61
2023/03/07 07:31:15;;;;;;;9.52;7.85;;;;;;;;;;5081797;28;20212;-60
2023/03/07 07:33:41;;;;;;;11.05;8.02;;;;;;;;;;5088170;28;20218;-60
2023/03/07 07:36:09;;;;;;;10.85;7.18;;;;;;;;;;5094326;28;20480;-60
2023/03/07 07:38:36;;;;;;;12.23;9.35;;;;;;;;;;5093624;28;20215;-60
2023/03/07 07:41:02;;;;;;;16.42;9.88;;;;;;;;;;5094602;28;20239;-60
2023/03/07 07:43:28;;;;;;;13.10;9.02;;;;;;;;;;5094710;28;20580;-62
2023/03/07 07:45:54;;;;;;;15.57;9.55;;;;;;;;;;5094518;28;20430;-61
2023/03/07 07:48:21;;;;;;;13.77;7.95;;;;;;;;;;5094701;28;20568;-61
2023/03/07 07:50:47;;;;;;;11.40;8.32;;;;;;;;;;5094130;28;20212;-61
2023/03/07 07:53:16;;;;;;;9.68;8.07;;;;;;;;;;5094811;28;20428;-62
2023/03/07 07:55:42;;;;;;;10.77;7.55;;;;;;;;;;5094686;28;20249;-61
2023/03/07 07:58:09;;;;;;;9.20;7.25;;;;;;;;;;5094992;28;20446;-61
2023/03/07 08:00:35;;;;;;;10.32;7.85;;;;;;;;;;5093671;28;20211;-60
2023/03/07 08:03:01;;;;;;;9.38;7.97;;;;;;;;;;5095044;28;20212;-60
2023/03/07 08:05:28;;;;;;;8.90;8.00;;;;;;;;;;5088569;28;20239;-61
2023/03/07 08:07:55;;;;;;;12.07;8.13;;;;;;;;;;5095861;28;20211;-61
2023/03/07 08:10:23;;;;;;;10.07;8.13;;;;;;;;;;5094343;28;20219;-61
2023/03/07 08:12:50;;;;;;;12.18;7.97;;;;;;;;;;5095723;28;20238;-61
2023/03/07 08:15:18;;;;;;;10.48;7.60;;;;;;;;;;5095552;28;20250;-61
2023/03/07 08:17:44;;;;;;;9.63;7.78;;;;;;;;;;5098573;28;20212;-61
2023/03/07 08:20:11;;;;;;;8.35;7.53;;;;;;;;;;5097555;28;20233;-61
2023/03/07 08:22:37;;;;;;;10.02;7.18;;;;;;;;;;5098549;28;20562;-61
2023/03/07 08:25:03;;;;;;;9.77;7.93;;;;;;;;;;5097965;28;20212;-61
2023/03/07 08:27:31;;;;;;;9.30;7.68;;;;;;;;;;5096969;28;20277;-60
2023/03/07 08:29:57;;;;;;;10.90;8.38;;;;;;;;;;5098112;28;20212;-61
2023/03/07 08:32:23;;;;;;;10.95;7.63;;;;;;;;;;5097944;28;20596;-59
2023/03/07 08:34:50;;;;;;;9.25;7.93;;;;;;;;;;5098406;28;20215;-60
2023/03/07 08:37:16;;;;;;;11.18;8.45;;;;;;;;;;5098388;28;20212;-60
2023/03/07 08:39:42;;;;;;;12.52;7.72;;;;;;;;;;5097746;28;20212;-60
2023/03/07 08:42:09;;;;;;;9.25;7.65;;;;;;;;;;5098722;28;20333;-60
2023/03/07 08:44:36;;;;;;;10.68;7.75;;;;;;;;;;5098067;28;20393;-60
2023/03/07 08:47:02;;;;;;;11.02;8.35;;;;;;;;;;5097997;28;20223;-61
2023/03/07 08:49:29;;;;;;;9.05;7.55;;;;;;;;;;5097738;28;20216;-60
2023/03/07 08:51:55;;;;;;;9.07;7.15;;;;;;;;;;5097584;28;20404;-60
2023/03/07 08:54:21;;;;;;;9.52;7.65;;;;;;;;;;5097651;28;20215;-60
2023/03/07 08:56:47;;;;;;;11.52;7.05;;;;;;;;;;5097941;28;20208;-60
2023/03/07 08:59:13;;;;;;;8.82;7.47;;;;;;;;;;5097402;28;20253;-60
2023/03/07 09:01:41;;;;;;;8.25;7.38;;;;;;;;;;5097413;28;20211;-60
2023/03/07 09:04:07;;;;;;;8.50;7.22;;;;;;;;;;5098244;28;20215;-60
2023/03/07 09:06:34;;;;;;;10.55;7.78;;;;;;;;;;5098561;28;20227;-60
2023/03/07 09:09:00;;;;;;;10.45;7.47;;;;;;;;;;5098015;28;20273;-60
2023/03/07 09:11:26;;;;;;;8.52;7.20;;;;;;;;;;5098107;28;20523;-60
2023/03/07 09:13:53;;;;;;;9.15;7.25;;;;;;;;;;5098077;28;20447;-60
2023/03/07 09:16:19;;;;;;;10.30;7.72;;;;;;;;;;5097697;28;20382;-60
2023/03/07 09:18:46;;;;;;;7.97;7.18;;;;;;;;;;5097352;28;20592;-62
2023/03/07 09:21:13;;;;;;;10.55;7.15;;;;;;;;;;5096536;28;20211;-60
2023/03/07 09:23:39;;;;;;;9.68;7.30;;;;;;;;;;5090801;28;20212;-60
2023/03/07 09:26:05;;;;;;;10.45;7.50;;;;;;;;;;5089337;28;20242;-59
2023/03/07 09:28:32;;;;;;;9.65;6.93;;;;;;;;;;5089352;28;20584;-61
2023/03/07 09:30:58;;;;;;;8.02;7.00;;;;;;;;;;5096349;28;20220;-62
2023/03/07 09:33:24;;;;;;;7.40;6.32;;;;;;;;;;5097090;28;20297;-63
2023/03/07 09:35:51;;;;;;;11.50;7.47;;;;;;;;;;5097301;28;20269;-60
2023/03/07 09:38:18;;;;;;;7.63;6.82;;;;;;;;;;5097687;28;20432;-62
2023/03/07 09:40:45;;;;;;;7.47;6.68;;;;;;;;;;5096336;28;20261;-61
2023/03/07 09:43:16;;;;;;;11.10;6.15;;;;;;;;;;5097313;28;20249;-60
2023/03/07 09:45:49;;;;;;;9.68;6.25;;;;;;;;;;5097214;28;20771;-62
2023/03/07 09:48:22;;;;;;;8.27;6.45;;;;;;;;;;5096748;28;20215;-60
2023/03/07 09:50:52;;;;;;;6.15;5.63;;;;;;;;;;5096684;28;20216;-62
2023/03/07 09:53:23;;;;;;;8.73;6.60;;;;;;;;;;5092547;28;20204;-62
2023/03/07 09:55:51;;;;;;;9.00;6.13;;;;;;;;;;5096077;28;20543;-62
2023/03/07 09:58:19;;;;;;;6.90;6.20;;;;;;;;;;5096942;28;20452;-59
2023/03/07 10:00:46;;;;;;;9.77;7.05;;;;;;;;;;5096169;28;20452;-62
2023/03/07 10:03:18;;;;;;;7.40;6.45;;;;;;;;;;5096929;28;20214;-62
2023/03/07 10:05:47;;;;;;;7.53;6.63;;;;;;;;;;5097038;28;20211;-60
2023/03/07 10:08:15;;;;;;;7.43;6.15;;;;;;;;;;5096650;28;20245;-60
2023/03/07 10:10:44;;;;;;;9.75;6.63;;;;;;;;;;5096751;28;20219;-59
2023/03/07 10:13:16;;;;;;;8.70;7.22;;;;;;;;;;5096093;28;20257;-60
2023/03/07 10:15:45;;;;;;;8.60;6.57;;;;;;;;;;5097129;28;20211;-60
2023/03/07 10:18:29;;;;;;;8.32;6.93;;;;;;;;;;5096331;28;20471;-59
2023/03/07 10:20:59;;;;;;;11.52;7.00;;;;;;;;;;5096127;28;20254;-60
2023/03/07 10:23:40;;;;;;;8.55;6.50;;;;;;;;;;5096348;28;20215;-61
2023/03/07 10:26:09;;;;;;;9.30;6.82;;;;;;;;;;5096090;28;20233;-60
2023/03/07 10:28:38;;;;;;;8.30;6.30;;;;;;;;;;5097259;28;20269;-61
2023/03/07 10:31:13;;;;;;;9.52;6.55;;;;;;;;;;5095392;28;20230;-61
2023/03/07 10:33:42;;;;;;;7.55;6.72;;;;;;;;;;5095658;28;20215;-60
2023/03/07 10:36:13;;;;;;;9.50;6.57;;;;;;;;;;5096338;28;20215;-62
2023/03/07 10:38:43;;;;;;;7.90;6.80;;;;;;;;;;5094770;28;20234;-60
2023/03/07 10:41:13;;;;;;;6.97;6.25;;;;;;;;;;5095313;28;20269;-60
2023/03/07 10:43:39;;;;;;;7.90;6.38;;;;;;;;;;5095639;28;20268;-60
2023/03/07 10:46:10;;;;;;;8.15;6.38;;;;;;;;;;5095992;28;20216;-59
2023/03/07 10:48:38;;;;;;;9.85;6.70;;;;;;;;;;5095854;28;20272;-61
2023/03/07 10:51:06;;;;;;;6.72;5.97;;;;;;;;;;5081681;28;20208;-60
2023/03/07 10:53:34;;;;;;;12.15;7.03;;;;;;;;;;5091883;28;20245;-60
2023/03/07 10:56:12;;;;;;;7.97;6.18;;;;;;;;;;5095343;28;20219;-61
2023/03/07 10:58:40;;;;;;;9.63;6.40;;;;;;;;;;5086402;28;20382;-62
2023/03/07 11:01:17;;;;;;;9.15;6.63;;;;;;;;;;5087521;28;20216;-60
2023/03/07 11:03:45;;;;;;;7.88;6.32;;;;;;;;;;5085760;28;20264;-60
2023/03/07 11:06:25;;;;;;;6.78;5.82;;;;;;;;;;5088747;28;20196;-63
2023/03/07 11:08:51;;;;;;;10.68;6.80;;;;;;;;;;5090290;28;20230;-61
2023/03/07 11:11:24;;;;;;;10.38;6.65;;;;;;;;;;5094432;28;20279;-61
2023/03/07 11:14:04;;;;;;;9.05;6.50;;;;;;;;;;5079244;28;20254;-61
2023/03/07 11:16:30;;;;;;;9.00;6.53;;;;;;;;;;5082832;28;20277;-61
2023/03/07 11:18:56;;;;;;;7.90;6.55;;;;;;;;;;5087948;28;20211;-60
2023/03/07 11:21:27;;;;;;;7.50;5.90;;;;;;;;;;5099134;28;20207;-61
2023/03/07 11:23:58;;;;;;;7.75;5.93;;;;;;;;;;5098240;28;20229;-62
2023/03/07 11:26:26;;;;;;;7.18;6.32;;;;;;;;;;5093623;28;20233;-61
2023/03/07 11:29:03;;;;;;;7.70;6.50;;;;;;;;;;5088805;28;20231;-62
2023/03/07 11:31:31;;;;;;;8.00;5.93;;;;;;;;;;5095589;28;20490;-61
2023/03/07 11:34:01;;;;;;;7.38;6.68;;;;;;;;;;5097631;28;20576;-62
2023/03/07 11:36:30;;;;;;;8.13;6.00;;;;;;;;;;5097496;28;20208;-61
2023/03/07 11:39:00;;;;;;;9.20;6.97;;;;;;;;;;5097329;28;20212;-62
2023/03/07 11:41:29;;;;;;;8.43;6.75;;;;;;;;;;5097700;28;20206;-61
2023/03/07 11:44:01;;;;;;;7.38;6.22;;;;;;;;;;5098274;28;20199;-61
2023/03/07 11:46:36;;;;;;;9.77;6.70;;;;;;;;;;5098521;28;20333;-61
2023/03/07 11:49:09;;;;;;;8.60;7.18;;;;;;;;;;5097943;28;20211;-61
2023/03/07 11:51:43;;;;;;;10.27;7.60;;;;;;;;;;5101242;28;20264;-61
2023/03/07 11:54:15;;;;;;;7.72;6.40;;;;;;;;;;5100029;28;20211;-62
2023/03/07 11:56:45;;;;;;;7.78;5.95;;;;;;;;;;5093559;28;20434;-61
2023/03/07 11:59:29;;;;;;;10.13;6.47;;;;;;;;;;5093346;28;20208;-62
2023/03/07 12:01:57;;;;;;;8.93;6.05;;;;;;;;;;5088613;28;20208;-62
2023/03/07 12:04:38;;;;;;;10.13;7.38;;;;;;;;;;5091116;28;20212;-62
2023/03/07 12:07:10;;;;;;;10.32;6.60;;;;;;;;;;5083945;28;20223;-61
2023/03/07 12:09:43;;;;;;;8.40;6.68;;;;;;;;;;5097057;28;20216;-61
2023/03/07 12:12:22;;;;;;;8.48;6.53;;;;;;;;;;5102550;28;20210;-62
2023/03/07 12:14:54;;;;;;;9.88;6.13;;;;;;;;;;5102431;28;20252;-61
2023/03/07 12:17:28;;;;;;;10.63;7.00;;;;;;;;;;5102304;28;20196;-61
2023/03/07 12:20:04;;;;;;;12.48;6.70;;;;;;;;;;5101805;28;20207;-61
2023/03/07 12:22:33;;;;;;;7.40;6.35;;;;;;;;;;5102395;28;20207;-62
2023/03/07 12:25:02;;;;;;;10.23;7.10;;;;;;;;;;5098731;28;20207;-60
2023/03/07 12:27:32;;;;;;;8.38;6.90;;;;;;;;;;5093645;28;20235;-60
2023/03/07 12:30:01;;;;;;;10.43;6.82;;;;;;;;;;5101278;28;20208;-60
2023/03/07 12:32:27;;;;;;;8.63;6.80;;;;;;;;;;5088676;28;20207;-60
2023/03/07 12:34:55;;;;;;;7.90;6.45;;;;;;;;;;5098057;28;20265;-60
2023/03/07 12:37:24;;;;;;;9.10;6.85;;;;;;;;;;5100965;28;20223;-60
2023/03/07 12:39:52;;;;;;;8.38;7.07;;;;;;;;;;5100424;28;20211;-60
2023/03/07 12:42:24;;;;;;;11.43;7.30;;;;;;;;;;5100804;28;20270;-60
2023/03/07 12:44:54;;;;;;;8.82;6.60;;;;;;;;;;5101833;28;20207;-60
2023/03/07 12:47:23;;;;;;;10.50;7.32;;;;;;;;;;5101773;28;20273;-60
2023/03/07 12:49:53;;;;;;;8.48;7.18;;;;;;;;;;5100226;28;20211;-59
2023/03/07 12:52:25;;;;;;;6.95;6.25;;;;;;;;;;5096800;28;20207;-59
2023/03/07 12:54:56;;;;;;;8.93;6.70;;;;;;;;;;5093910;28;20226;-60
2023/03/07 12:57:24;;;;;;;11.02;6.13;;;;;;;;;;5096258;28;20214;-59
2023/03/07 12:59:53;;;;;;;9.55;7.25;;;;;;;;;;5099395;28;20215;-60
2023/03/07 13:02:21;;;;;;;9.32;7.07;;;;;;;;;;5097849;28;20226;-60
2023/03/07 13:04:47;;;;;;;7.75;6.10;;;;;;;;;;5097013;28;20249;-59
2023/03/07 13:07:15;;;;;;;8.82;6.00;;;;;;;;;;5092844;28;20228;-59
2023/03/07 13:09:42;;;;;;;7.43;6.63;;;;;;;;;;5091734;28;20204;-60
2023/03/07 13:12:23;;;;;;;8.48;5.88;;;;;;;;;;5092063;28;20204;-58
2023/03/07 13:14:50;;;;;;;7.43;5.72;;;;;;;;;;5094015;28;20257;-60
2023/03/07 13:17:44;;;;;;;8.85;6.00;;;;;;;;;;5091353;28;20519;-59
2023/03/07 13:20:25;;;;;;;8.85;6.22;;;;;;;;;;5092355;28;20208;-60
2023/03/07 13:23:00;;;;;;;6.47;5.82;;;;;;;;;;5090460;28;20204;-60
2023/03/07 13:25:42;;;;;;;8.68;5.90;;;;;;;;;;5088508;28;20479;-61
2023/03/07 13:28:23;;;;;;;7.32;5.82;;;;;;;;;;5089783;28;20224;-59
2023/03/07 13:31:10;;;;;;;6.28;5.65;;;;;;;;;;5100767;28;20207;-60
2023/03/07 13:33:37;;;;;;;5.57;5.07;;;;;;;;;;5098422;28;20211;-60
2023/03/07 13:36:03;;;;;;;7.15;5.28;;;;;;;;;;5089913;28;20208;-60
2023/03/07 13:38:32;;;;;;;7.47;5.38;;;;;;;;;;5091316;28;20372;-60
2023/03/07 13:40:59;;;;;;;5.68;5.10;;;;;;;;;;5090671;28;20211;-60
2023/03/07 13:43:49;;;;;;;7.60;4.90;;;;;;;;;;5088930;28;20214;-60
2023/03/07 13:46:45;;;;;;;5.78;5.28;;;;;;;;;;5084594;28;20420;-60
2023/03/07 13:49:11;;;;;;;5.05;4.45;;;;;;;;;;5050089;28;20237;-61
2023/03/07 13:51:38;;;;;;;5.13;4.65;;;;;;;;;;5079235;28;20208;-61
2023/03/07 13:54:09;;;;;;;4.57;4.18;;;;;;;;;;5091759;28;20203;-63
2023/03/07 13:56:36;;;;;;;5.15;4.10;;;;;;;;;;5100348;28;20192;-62
2023/03/07 13:59:06;;;;;;;4.88;4.38;;;;;;;;;;5085295;28;20204;-62
2023/03/07 14:01:35;;;;;;;4.13;3.78;;;;;;;;;;5088058;28;20428;-62
2023/03/07 14:04:04;;;;;;;5.00;3.90;;;;;;;;;;5093797;28;20203;-62
2023/03/07 14:06:31;;;;;;;4.88;4.07;;;;;;;;;;5097926;28;20246;-62
2023/03/07 14:08:58;;;;;;;5.13;4.65;;;;;;;;;;5088086;28;20408;-62
2023/03/07 14:11:28;;;;;;;8.98;5.53;;;;;;;;;;5091172;28;20212;-62
2023/03/07 14:14:01;;;;;;;5.82;4.53;;;;;;;;;;5098719;28;20242;-62
2023/03/07 14:16:33;;;;;;;5.20;4.35;;;;;;;;;;5091209;28;20211;-62
2023/03/07 14:19:06;;;;;;;6.15;4.80;;;;;;;;;;5098163;28;20208;-60
2023/03/07 14:21:39;;;;;;;5.90;4.35;;;;;;;;;;5096544;28;20284;-60
2023/03/07 14:24:11;;;;;;;4.85;4.05;;;;;;;;;;5095480;28;20748;-62
2023/03/07 14:26:41;;;;;;;4.63;4.07;;;;;;;;;;5095034;28;20503;-63
2023/03/07 14:29:14;;;;;;;5.57;4.18;;;;;;;;;;5095000;28;20543;-62
2023/03/07 14:31:41;;;;;;;5.00;4.30;;;;;;;;;;5095713;28;20211;-62
2023/03/07 14:34:16;;;;;;;11.70;4.47;;;;;;;;;;5083875;28;20212;-62
2023/03/07 14:36:42;;;;;;;5.35;4.57;;;;;;;;;;5095140;28;20207;-63
2023/03/07 14:39:11;;;;;;;5.95;4.45;;;;;;;;;;5094304;28;20371;-63